Time;durP1;ratioP1;P1;durP2;ratioP2;P2;SDS_P1;SDS_P2;PMS_P1;PMS_P2;Temp;Humidity;BMP_temperature;BMP_pressure;BME280_temperature;BME280_humidity;BME280_pressure;Samples;Min_cycle;Max_cycle;Signal;HPM_P1;HPM_P2
2021/12/03 00:00:54;;;;;;;3.90;2.80;;;8.90;79.90;;;9.05;56.16;93871.31;4998854;28;20988;-58
2021/12/03 00:03:22;;;;;;;2.50;2.40;;;9.00;79.90;;;9.18;56.48;93853.34;5005103;28;20494;-58
2021/12/03 00:05:51;;;;;;;7.87;3.33;;;9.10;80.00;;;9.31;56.22;93860.78;5004355;28;20485;-56
2021/12/03 00:08:19;;;;;;;3.07;2.50;;;9.20;79.60;;;9.44;55.50;93876.91;5002274;28;20454;-55
2021/12/03 00:10:50;;;;;;;4.13;2.37;;;9.40;79.10;;;9.54;55.37;93886.47;5005657;28;20492;-56
2021/12/03 00:13:20;;;;;;;10.73;2.60;;;9.50;78.70;;;9.65;55.04;93883.56;5004047;28;20442;-57
2021/12/03 00:15:49;;;;;;;2.60;2.10;;;9.60;78.40;;;9.74;54.80;93887.84;5004097;28;20506;-56
2021/12/03 00:18:16;;;;;;;4.10;2.03;;;9.70;78.20;;;9.86;55.02;93883.16;5002718;28;20455;-55
2021/12/03 00:20:43;;;;;;;6.00;2.40;;;9.80;78.10;;;9.98;54.65;93892.38;5000819;28;20585;-56
2021/12/03 00:23:11;;;;;;;7.70;1.43;;;9.90;78.00;;;10.10;54.79;93878.94;5001948;28;20497;-55
2021/12/03 00:25:38;;;;;;;2.30;1.30;;;10.00;76.50;;;10.22;54.46;93880.25;4999512;28;20470;-55
2021/12/03 00:28:05;;;;;;;2.77;1.17;;;10.10;76.40;;;10.35;54.82;93883.28;5000533;28;20445;-54
2021/12/03 00:30:33;;;;;;;1.73;1.30;;;10.30;76.90;;;10.46;54.76;93887.38;5004911;28;20532;-55
2021/12/03 00:33:02;;;;;;;1.83;1.20;;;10.40;76.40;;;10.59;54.26;93879.00;5005835;28;20446;-55
2021/12/03 00:35:29;;;;;;;1.33;1.17;;;10.50;76.10;;;10.71;54.20;93884.78;5003727;28;20478;-57
2021/12/03 00:37:56;;;;;;;6.40;1.70;;;10.60;75.70;;;10.82;53.86;93875.72;5000753;28;20453;-59
2021/12/03 00:40:30;;;;;;;3.47;1.53;;;10.70;75.30;;;10.89;53.63;93876.69;5005898;28;20478;-56
2021/12/03 00:42:57;;;;;;;1.80;1.60;;;10.80;75.20;;;10.97;53.70;93895.09;5005427;28;20538;-59
2021/12/03 00:45:25;;;;;;;7.03;1.60;;;10.90;74.90;;;11.04;53.33;93895.25;4996108;28;20479;-55
2021/12/03 00:47:52;;;;;;;7.10;1.53;;;10.90;74.40;;;11.11;53.15;93880.44;4996545;28;20990;-56
2021/12/03 00:50:22;;;;;;;1.90;1.60;;;11.00;74.00;;;11.18;52.94;93885.84;5001072;28;20974;-58
2021/12/03 00:52:50;;;;;;;3.47;1.60;;;11.10;73.80;;;11.25;52.96;93894.75;5004072;28;20447;-58
2021/12/03 00:55:17;;;;;;;6.40;2.93;;;11.20;73.70;;;11.31;52.44;93912.50;5003327;28;20453;-58
2021/12/03 00:57:44;;;;;;;2.63;2.13;;;11.20;72.90;;;11.32;52.41;93893.06;5001323;28;20525;-54
2021/12/03 01:00:15;;;;;;;4.87;2.73;;;11.30;72.40;;;11.34;51.74;93896.34;5003121;28;20450;-58
2021/12/03 01:02:42;;;;;;;3.70;2.97;;;11.30;71.60;;;11.31;51.88;93899.34;5005665;28;20821;-58
2021/12/03 01:05:10;;;;;;;5.87;3.00;;;11.20;71.50;;;11.26;52.18;93899.00;5004571;28;20500;-58
2021/12/03 01:07:39;;;;;;;5.13;2.83;;;11.20;71.40;;;11.22;52.20;93902.97;5004828;28;20457;-57
2021/12/03 01:10:08;;;;;;;8.27;2.70;;;11.20;71.80;;;11.18;52.64;93885.84;5000369;28;20458;-55
2021/12/03 01:12:35;;;;;;;1.50;1.23;;;11.10;72.20;;;11.17;52.66;93892.09;5006554;28;20477;-54
2021/12/03 01:15:03;;;;;;;1.43;1.33;;;11.10;72.60;;;11.16;52.95;93879.94;5003104;28;20464;-55
2021/12/03 01:17:30;;;;;;;3.63;1.27;;;11.10;72.90;;;11.22;52.97;93892.44;5003031;28;20449;-58
2021/12/03 01:19:59;;;;;;;2.30;1.23;;;11.10;73.30;;;11.27;52.98;93882.22;5006381;28;20449;-54
2021/12/03 01:22:26;;;;;;;1.30;1.00;;;11.20;73.40;;;11.34;52.90;93875.31;5003656;28;20998;-58
2021/12/03 01:24:55;;;;;;;3.17;0.93;;;11.30;73.40;;;11.39;52.71;93862.44;5002930;28;20482;-58
2021/12/03 01:27:22;;;;;;;3.13;1.30;;;11.30;73.10;;;11.45;52.69;93887.28;5001282;28;20482;-53
2021/12/03 01:29:50;;;;;;;1.07;0.90;;;11.30;72.70;;;11.50;52.61;93879.69;5003907;28;20871;-55
2021/12/03 01:32:17;;;;;;;1.57;1.10;;;11.40;72.80;;;11.56;52.46;93880.81;4998454;28;20482;-59
2021/12/03 01:34:45;;;;;;;1.20;1.03;;;11.40;72.50;;;11.59;52.16;93873.41;4996029;28;20524;-57
2021/12/03 01:37:12;;;;;;;1.37;0.70;;;11.50;72.30;;;11.65;52.26;93866.63;5003776;28;20480;-55
2021/12/03 01:39:39;;;;;;;1.10;1.00;;;11.60;72.20;;;11.69;52.09;93873.19;5002425;28;20465;-59
2021/12/03 01:42:09;;;;;;;2.40;1.03;;;11.60;72.20;;;11.72;52.10;93872.03;5002870;28;20489;-58
2021/12/03 01:44:36;;;;;;;1.23;1.10;;;11.60;71.90;;;11.75;52.14;93876.94;4998852;28;21044;-59
2021/12/03 01:47:03;;;;;;;1.03;0.93;;;11.70;71.70;;;11.77;52.02;93864.41;5002925;28;21000;-60
2021/12/03 01:49:31;;;;;;;2.07;0.97;;;11.70;71.70;;;11.80;51.89;93869.34;5003477;28;20974;-58
2021/12/03 01:51:58;;;;;;;4.07;1.40;;;11.70;71.60;;;11.82;52.08;93870.81;5004537;28;20485;-58
2021/12/03 01:54:25;;;;;;;2.03;1.43;;;11.70;71.50;;;11.84;52.04;93871.47;4995598;28;20466;-55
2021/12/03 01:56:52;;;;;;;3.37;1.30;;;11.70;71.50;;;11.86;52.10;93873.13;4997245;28;21017;-55
2021/12/03 01:59:21;;;;;;;4.20;0.90;;;11.80;71.50;;;11.85;51.86;93874.94;4996905;28;20823;-54
2021/12/03 02:01:48;;;;;;;1.30;1.17;;;11.80;71.10;;;11.88;51.81;93863.22;5002587;28;20473;-57
2021/12/03 02:04:16;;;;;;;1.20;1.10;;;11.80;71.10;;;11.89;52.05;93867.50;5001368;28;20491;-55
2021/12/03 02:06:43;;;;;;;1.23;1.13;;;11.80;71.10;;;11.90;51.90;93863.84;5003269;28;20555;-58
2021/12/03 02:09:11;;;;;;;4.43;1.07;;;11.80;71.10;;;11.90;51.95;93853.31;5003183;28;20450;-54
2021/12/03 02:11:39;;;;;;;3.17;2.40;;;11.80;71.20;;;11.91;52.21;93852.34;5005358;28;20470;-55
2021/12/03 02:14:06;;;;;;;1.50;1.40;;;11.80;71.40;;;11.91;52.18;93854.97;5001719;28;20554;-55
2021/12/03 02:16:36;;;;;;;1.03;0.90;;;11.80;71.50;;;11.91;51.82;93847.88;4998648;28;21021;-58
2021/12/03 02:19:03;;;;;;;1.03;0.93;;;11.80;71.10;;;11.95;51.92;93840.50;4998245;28;20458;-58
2021/12/03 02:21:32;;;;;;;1.77;1.23;;;11.80;71.10;;;11.99;51.91;93852.31;4997783;28;20944;-55
2021/12/03 02:23:59;;;;;;;5.23;1.23;;;11.90;71.30;;;12.00;51.85;93843.41;4998792;28;20486;-57
2021/12/03 02:26:27;;;;;;;2.87;1.20;;;11.90;71.20;;;12.02;51.67;93841.41;5000505;28;20477;-58
2021/12/03 02:28:54;;;;;;;2.10;1.10;;;11.90;71.20;;;12.05;51.64;93843.72;5002306;28;20450;-58
2021/12/03 02:31:23;;;;;;;2.80;1.20;;;12.00;70.90;;;12.09;51.64;93858.19;5000490;28;20478;-55
2021/12/03 02:33:50;;;;;;;1.40;1.30;;;12.00;71.00;;;12.12;51.40;93847.31;5003950;28;20470;-55
2021/12/03 02:36:18;;;;;;;2.80;0.80;;;12.00;70.70;;;12.14;51.52;93829.47;5003318;28;20567;-60
2021/12/03 02:38:46;;;;;;;1.50;1.40;;;12.00;70.70;;;12.15;51.48;93831.13;4999471;28;20454;-58
2021/12/03 02:41:14;;;;;;;8.00;1.03;;;12.00;70.50;;;12.15;51.62;93836.41;5001344;28;20477;-54
2021/12/03 02:43:41;;;;;;;1.30;1.20;;;12.00;70.60;;;12.16;51.60;93853.88;4996848;28;20457;-58
2021/12/03 02:46:08;;;;;;;2.80;1.30;;;12.00;70.70;;;12.16;51.56;93838.06;5003891;28;20529;-56
2021/12/03 02:48:36;;;;;;;3.70;1.23;;;12.00;70.30;;;12.15;51.17;93839.03;5002382;28;20458;-55
2021/12/03 02:51:04;;;;;;;1.67;1.30;;;12.00;69.70;;;12.13;50.93;93859.50;5006512;28;20485;-58
2021/12/03 02:53:31;;;;;;;1.77;1.67;;;12.00;69.40;;;12.11;51.14;93848.28;5008483;28;21041;-59
2021/12/03 02:56:00;;;;;;;3.13;1.60;;;12.00;69.50;;;12.09;51.22;93847.66;5004580;28;20478;-56
2021/12/03 02:58:28;;;;;;;2.53;2.33;;;12.00;69.40;;;12.08;51.27;93853.91;5006309;28;20470;-56
2021/12/03 03:00:55;;;;;;;2.20;1.40;;;12.00;69.60;;;12.06;51.38;93857.72;5004913;28;20857;-56
2021/12/03 03:03:23;;;;;;;1.63;1.43;;;11.90;69.70;;;12.03;51.50;93858.88;5005310;28;20477;-56
2021/12/03 03:05:54;;;;;;;1.63;1.17;;;11.90;70.20;;;12.04;51.58;93860.53;5003347;28;20497;-58
2021/12/03 03:08:21;;;;;;;5.00;2.00;;;11.90;70.50;;;12.06;51.87;93855.91;5006073;28;20441;-58
2021/12/03 03:10:48;;;;;;;4.00;1.37;;;12.00;70.70;;;12.06;51.91;93863.00;5004984;28;20899;-59
2021/12/03 03:13:17;;;;;;;3.47;1.20;;;11.90;71.00;;;12.06;52.02;93866.44;5005434;28;20446;-54
2021/12/03 03:15:44;;;;;;;6.03;1.50;;;12.00;71.30;;;12.08;52.02;93853.09;5005178;28;20535;-56
2021/12/03 03:18:14;;;;;;;3.70;1.50;;;11.90;71.30;;;12.08;52.17;93856.53;5003877;28;20461;-55
2021/12/03 03:20:42;;;;;;;1.60;1.37;;;12.00;71.30;;;12.09;51.85;93854.75;5008306;28;20465;-58
2021/12/03 03:23:12;;;;;;;2.83;1.57;;;11.90;71.20;;;12.09;52.19;93858.19;5007764;28;20461;-58
2021/12/03 03:25:40;;;;;;;2.13;1.53;;;12.00;71.30;;;12.11;52.23;93856.19;5006170;28;20941;-59
2021/12/03 03:28:07;;;;;;;5.50;2.20;;;12.00;71.30;;;12.11;52.19;93856.19;5007194;28;20451;-55
2021/12/03 03:30:36;;;;;;;3.33;1.43;;;12.00;71.30;;;12.11;52.20;93847.47;4998730;28;20478;-56
2021/12/03 03:33:04;;;;;;;2.07;1.70;;;12.00;71.30;;;12.11;52.31;93858.81;5000866;28;20971;-58
2021/12/03 03:35:31;;;;;;;1.60;1.37;;;12.00;71.30;;;12.09;52.44;93868.72;4996273;28;20546;-56
2021/12/03 03:37:59;;;;;;;4.37;1.60;;;12.00;71.50;;;12.07;52.34;93860.19;5011686;28;20454;-59
2021/12/03 03:40:26;;;;;;;4.27;1.37;;;11.90;71.60;;;12.06;52.36;93853.25;5006553;28;20544;-58
2021/12/03 03:42:54;;;;;;;2.90;1.70;;;11.90;71.80;;;12.06;52.30;93869.06;5004805;28;20977;-56
2021/12/03 03:45:22;;;;;;;2.10;1.53;;;11.90;71.80;;;12.05;52.71;93851.63;5006663;28;20485;-56
2021/12/03 03:47:51;;;;;;;1.37;1.23;;;11.90;72.00;;;12.05;52.24;93851.63;5005555;28;20481;-56
2021/12/03 03:50:20;;;;;;;2.50;1.37;;;11.90;71.90;;;12.05;52.44;93845.53;5004297;28;20451;-58
2021/12/03 03:52:48;;;;;;;1.40;1.30;;;11.90;72.00;;;12.04;52.79;93854.44;5006111;28;20462;-59
2021/12/03 03:55:17;;;;;;;10.10;1.43;;;11.90;71.80;;;12.03;52.63;93856.25;5003721;28;20541;-54
2021/12/03 03:57:44;;;;;;;2.17;1.47;;;11.90;71.80;;;12.05;52.29;93856.88;4993266;28;20474;-54
2021/12/03 04:00:14;;;;;;;3.03;1.47;;;11.90;71.60;;;12.07;52.15;93860.19;5003993;28;20524;-59
2021/12/03 04:02:42;;;;;;;3.17;1.10;;;12.00;71.30;;;12.09;52.44;93863.47;4997944;28;20451;-58
2021/12/03 04:05:11;;;;;;;5.03;1.17;;;11.90;72.00;;;12.12;52.12;93859.66;5007853;28;20508;-59
2021/12/03 04:07:38;;;;;;;2.27;1.10;;;12.00;71.30;;;12.14;52.32;93866.38;5004164;28;20549;-62
2021/12/03 04:10:07;;;;;;;3.70;1.37;;;12.00;71.30;;;12.17;52.07;93862.59;5007906;28;20926;-60
2021/12/03 04:12:34;;;;;;;1.53;1.20;;;12.00;71.30;;;12.16;52.01;93859.16;5006687;28;20529;-59
2021/12/03 04:15:01;;;;;;;1.53;1.43;;;12.00;71.30;;;12.16;52.25;93866.22;5003402;28;20454;-55
2021/12/03 04:17:29;;;;;;;1.83;1.33;;;12.00;71.30;;;12.15;52.19;93857.50;5007274;28;20553;-58
2021/12/03 04:19:56;;;;;;;3.50;1.13;;;12.10;71.40;;;12.14;52.06;93871.66;4995997;28;20450;-58
2021/12/03 04:22:25;;;;;;;2.93;1.47;;;12.00;71.30;;;12.15;52.04;93875.13;4996057;28;20994;-59
2021/12/03 04:24:53;;;;;;;6.43;5.30;;;12.00;71.30;;;12.14;51.82;93870.84;5003555;28;21025;-59
2021/12/03 04:27:20;;;;;;;12.03;7.20;;;12.00;70.70;;;12.06;51.33;93873.53;5007502;28;20544;-58
2021/12/03 04:29:48;;;;;;;13.47;6.00;;;12.00;69.40;;;11.91;51.46;93871.59;5007454;28;20827;-59
2021/12/03 04:32:17;;;;;;;5.73;4.40;;;11.80;70.50;;;11.76;51.41;93876.78;5002407;28;20479;-56
2021/12/03 04:34:44;;;;;;;9.47;4.73;;;11.70;69.10;;;11.61;51.84;93881.94;5005136;28;20455;-55
2021/12/03 04:37:13;;;;;;;8.13;4.20;;;11.60;69.80;;;11.47;51.93;93885.28;5008438;28;20579;-55
2021/12/03 04:39:42;;;;;;;5.60;3.90;;;11.40;69.90;;;11.35;52.09;93886.63;5006322;28;20464;-56
2021/12/03 04:42:10;;;;;;;6.50;4.00;;;11.30;70.20;;;11.24;52.07;93890.44;5006546;28;20483;-57
2021/12/03 04:44:37;;;;;;;5.00;4.07;;;11.20;70.50;;;11.16;52.57;93893.09;4999143;28;20482;-59
2021/12/03 04:47:05;;;;;;;7.70;4.60;;;11.10;70.90;;;11.09;53.02;93893.78;4998842;28;20481;-58
2021/12/03 04:49:33;;;;;;;19.93;5.10;;;11.00;71.90;;;11.04;53.11;93898.69;4998042;28;20827;-57
2021/12/03 04:52:00;;;;;;;4.10;3.70;;;11.00;72.00;;;11.00;53.28;93905.31;5004835;28;20474;-57
2021/12/03 04:54:27;;;;;;;7.73;3.37;;;10.90;72.40;;;10.98;53.52;93904.63;5004039;28;20462;-58
2021/12/03 04:56:57;;;;;;;5.97;3.10;;;10.90;72.60;;;10.96;53.85;93909.25;5002088;28;20482;-57
2021/12/03 04:59:24;;;;;;;5.70;3.27;;;10.90;73.50;;;10.99;54.56;93906.28;5003076;28;20518;-59
2021/12/03 05:01:54;;;;;;;3.87;2.93;;;10.90;74.90;;;11.03;54.12;93901.50;5004079;28;20849;-58
2021/12/03 05:04:23;;;;;;;4.93;2.33;;;10.90;74.60;;;11.07;54.45;93906.25;4999235;28;20453;-57
2021/12/03 05:06:55;;;;;;;2.83;2.40;;;11.00;74.90;;;11.14;54.17;93911.69;5008756;28;20481;-56
2021/12/03 05:09:23;;;;;;;8.67;3.70;;;11.00;74.90;;;11.20;54.52;93895.25;4999534;28;20971;-57
2021/12/03 05:11:50;;;;;;;4.80;3.10;;;11.10;75.30;;;11.28;54.52;93897.03;4998508;28;20475;-56
2021/12/03 05:14:19;;;;;;;2.63;2.10;;;11.10;75.30;;;11.35;54.73;93900.63;5007792;28;20476;-58
2021/12/03 05:16:48;;;;;;;4.03;1.63;;;11.20;75.60;;;11.41;54.33;93902.56;5004308;28;20527;-58
2021/12/03 05:19:16;;;;;;;3.27;1.63;;;11.30;75.40;;;11.48;54.29;93914.09;5007062;28;20896;-57
2021/12/03 05:21:43;;;;;;;3.27;1.50;;;11.30;75.00;;;11.56;54.05;93899.25;5005398;28;20521;-55
2021/12/03 05:24:11;;;;;;;1.77;1.37;;;11.40;74.70;;;11.62;54.10;93903.84;5005698;28;20458;-57
2021/12/03 05:26:39;;;;;;;2.03;1.10;;;11.50;75.30;;;11.68;53.95;93903.16;5004352;28;20544;-56
2021/12/03 05:29:07;;;;;;;3.60;2.00;;;11.60;74.80;;;11.74;53.78;93913.03;5001046;28;20537;-59
2021/12/03 05:31:36;;;;;;;8.47;1.60;;;11.60;74.50;;;11.81;53.60;93918.41;5003043;28;20494;-59
2021/12/03 05:34:04;;;;;;;4.53;1.33;;;11.70;74.50;;;11.83;53.74;93924.34;5000816;28;20476;-60
2021/12/03 05:36:31;;;;;;;2.47;1.43;;;11.70;74.40;;;11.86;53.65;93918.72;5001904;28;20561;-58
2021/12/03 05:38:58;;;;;;;4.00;1.00;;;11.70;74.30;;;11.89;53.88;93918.38;4998729;28;20462;-56
2021/12/03 05:41:26;;;;;;;7.23;1.40;;;11.80;74.40;;;11.92;53.75;93931.25;5001737;28;20555;-58
2021/12/03 05:43:53;;;;;;;2.97;1.47;;;11.80;74.40;;;11.94;53.95;93928.44;5002784;28;20554;-61
2021/12/03 05:46:20;;;;;;;1.50;1.40;;;11.80;74.60;;;11.97;53.95;93936.81;5002424;28;20489;-59
2021/12/03 05:48:49;;;;;;;2.03;1.93;;;11.90;74.60;;;11.99;53.87;93948.03;5005529;28;20454;-60
2021/12/03 05:51:16;;;;;;;3.00;1.30;;;11.90;74.50;;;12.01;53.96;93961.84;5003819;28;20478;-56
2021/12/03 05:53:44;;;;;;;9.90;1.77;;;11.90;74.60;;;12.03;53.94;93961.66;4994977;28;20458;-56
2021/12/03 05:56:11;;;;;;;8.00;1.60;;;12.00;74.80;;;12.04;53.94;93954.56;4997631;28;20509;-56
2021/12/03 05:58:38;;;;;;;2.40;1.43;;;11.90;74.90;;;12.05;54.25;93943.84;5001493;28;20551;-56
2021/12/03 06:01:06;;;;;;;2.77;1.57;;;12.00;75.00;;;12.09;54.16;93931.19;5002490;28;20478;-60
2021/12/03 06:03:33;;;;;;;2.63;1.67;;;12.00;75.00;;;12.23;54.16;93937.53;5001133;28;20457;-60
2021/12/03 06:06:02;;;;;;;2.43;1.47;;;12.10;75.10;;;12.32;53.73;93932.03;5002668;28;20571;-57
2021/12/03 06:08:29;;;;;;;3.43;1.80;;;12.20;74.80;;;12.37;53.50;93939.44;5004326;28;20536;-56
2021/12/03 06:10:56;;;;;;;6.17;1.43;;;12.30;74.60;;;12.39;53.65;93950.59;5004986;28;20470;-61
2021/12/03 06:13:24;;;;;;;2.40;1.33;;;12.30;74.30;;;12.37;53.60;93934.16;5008093;28;20487;-59
2021/12/03 06:15:51;;;;;;;4.23;1.67;;;12.30;74.20;;;12.37;53.88;93949.97;5001782;28;20482;-57
2021/12/03 06:18:18;;;;;;;9.47;1.67;;;12.20;74.10;;;12.38;53.71;93946.34;5006044;28;20462;-60
2021/12/03 06:20:46;;;;;;;14.23;1.60;;;12.30;74.20;;;12.37;53.52;93934.16;4995243;28;20533;-56
2021/12/03 06:23:14;;;;;;;2.97;1.03;;;12.30;74.30;;;12.39;53.57;93958.53;5002456;28;20524;-60
2021/12/03 06:25:42;;;;;;;4.00;1.53;;;12.30;74.30;;;12.41;53.31;93964.47;5002185;28;20490;-57
2021/12/03 06:28:09;;;;;;;4.13;1.53;;;12.30;74.10;;;12.43;53.82;93951.91;5004298;28;20960;-57
2021/12/03 06:30:37;;;;;;;3.30;1.90;;;12.30;74.20;;;12.46;53.44;93956.84;5004963;28;20552;-57
2021/12/03 06:33:05;;;;;;;4.00;1.63;;;12.40;74.20;;;12.51;53.07;93949.22;5003791;28;20454;-61
2021/12/03 06:35:32;;;;;;;2.20;1.47;;;12.40;74.30;;;12.57;53.43;93954.81;5005494;28;20993;-61
2021/12/03 06:38:00;;;;;;;5.03;1.60;;;12.40;74.20;;;12.61;53.70;93956.09;5000316;28;20461;-57
2021/12/03 06:40:29;;;;;;;2.90;2.07;;;12.50;74.00;;;12.64;53.37;93969.78;4998522;28;20867;-61
2021/12/03 06:42:56;;;;;;;10.20;2.90;;;12.50;74.00;;;12.65;53.38;93963.47;4995132;28;20450;-60
2021/12/03 06:45:24;;;;;;;5.90;1.60;;;12.50;74.00;;;12.68;53.29;93978.97;4999500;28;20497;-59
2021/12/03 06:47:52;;;;;;;7.57;1.30;;;12.60;74.00;;;12.69;53.15;93983.25;4995379;28;20468;-60
2021/12/03 06:50:19;;;;;;;4.13;1.20;;;12.60;73.80;;;12.76;53.13;93983.38;4996311;28;20454;-57
2021/12/03 06:52:51;;;;;;;7.97;1.43;;;12.60;73.70;;;12.79;53.08;93972.47;5003391;28;20491;-58
2021/12/03 06:55:18;;;;;;;4.10;1.63;;;12.70;73.60;;;12.81;52.95;93978.41;5001220;28;20439;-62
2021/12/03 06:57:47;;;;;;;3.00;1.43;;;12.70;73.40;;;12.84;52.91;93999.16;5000998;28;20468;-58
2021/12/03 07:00:15;;;;;;;6.73;1.80;;;12.70;73.40;;;12.88;52.90;93995.16;5003526;28;20449;-61
2021/12/03 07:02:43;;;;;;;4.10;1.33;;;12.80;73.30;;;12.97;53.02;93992.47;4999186;28;20830;-57
2021/12/03 07:05:10;;;;;;;5.17;1.10;;;12.80;73.30;;;13.05;52.57;93990.59;5001132;28;20470;-55
2021/12/03 07:07:37;;;;;;;3.60;1.20;;;12.90;73.10;;;13.09;52.80;93985.78;5002377;28;20459;-61
2021/12/03 07:10:06;;;;;;;10.47;1.87;;;13.00;72.90;;;13.17;52.64;93988.34;4999684;28;20442;-56
2021/12/03 07:12:33;;;;;;;4.30;1.40;;;13.10;72.70;;;13.31;52.38;93978.00;5002994;28;20460;-61
2021/12/03 07:15:02;;;;;;;5.93;1.57;;;13.20;72.60;;;13.39;52.21;93972.69;5002030;28;20451;-61
2021/12/03 07:17:32;;;;;;;6.27;1.60;;;13.30;72.50;;;13.52;51.79;93990.56;5003262;28;20450;-61
2021/12/03 07:20:00;;;;;;;8.73;1.70;;;13.40;72.30;;;13.58;51.74;93979.28;5001746;28;20445;-57
2021/12/03 07:22:27;;;;;;;6.20;1.73;;;13.50;72.00;;;13.69;51.93;93980.66;5004533;28;20470;-57
2021/12/03 07:24:55;;;;;;;5.87;1.30;;;13.60;71.90;;;13.84;51.42;93976.19;5003741;28;20931;-63
2021/12/03 07:27:23;;;;;;;1.97;1.03;;;13.70;71.50;;;13.96;51.11;94006.47;5003579;28;20504;-61
2021/12/03 07:29:50;;;;;;;2.50;1.30;;;13.80;70.80;;;14.03;50.63;93985.41;4996125;28;20539;-56
2021/12/03 07:32:23;;;;;;;13.47;1.60;;;13.90;70.10;;;14.08;50.50;93969.81;4997707;28;20531;-62
2021/12/03 07:34:51;;;;;;;6.40;1.80;;;14.00;70.00;;;14.21;50.71;93974.44;4998573;28;20470;-56
2021/12/03 07:37:18;;;;;;;5.23;1.73;;;14.10;69.70;;;14.43;50.23;93977.97;5004920;28;21061;-61
2021/12/03 07:39:46;;;;;;;2.20;1.37;;;14.30;69.10;;;14.70;49.77;93995.00;5005997;28;20453;-61
2021/12/03 07:42:13;;;;;;;6.10;1.33;;;14.50;69.00;;;14.99;48.85;93990.59;5006944;28;20577;-58
2021/12/03 07:44:41;;;;;;;8.67;1.17;;;14.70;67.70;;;15.12;48.64;93976.69;5005720;28;20454;-57
2021/12/03 07:47:09;;;;;;;6.23;1.30;;;14.90;67.10;;;15.32;48.79;93983.97;5006611;28;20499;-58
2021/12/03 07:49:39;;;;;;;3.03;0.83;;;15.10;66.90;;;15.51;48.21;93985.97;5006939;28;20470;-62
2021/12/03 07:52:07;;;;;;;3.63;0.90;;;15.30;66.00;;;15.63;48.12;93975.69;5004846;28;20477;-62
2021/12/03 07:54:34;;;;;;;10.47;1.47;;;15.40;65.90;;;15.70;47.59;93984.47;5005702;28;20594;-61
2021/12/03 07:57:02;;;;;;;4.00;1.10;;;15.40;64.80;;;15.63;47.11;93982.81;5006696;28;20522;-58
2021/12/03 07:59:29;;;;;;;2.30;0.97;;;15.40;63.50;;;15.52;47.11;93981.50;4998131;28;20457;-61
2021/12/03 08:01:57;;;;;;;2.53;1.40;;;15.40;63.70;;;15.42;47.71;93998.53;5002760;28;21006;-56
2021/12/03 08:04:24;;;;;;;8.80;1.80;;;15.30;63.90;;;15.36;47.60;93999.31;5003988;28;20925;-60
2021/12/03 08:06:54;;;;;;;5.00;1.30;;;15.20;63.80;;;15.31;47.68;93996.41;5008277;28;20508;-57
2021/12/03 08:09:22;;;;;;;3.50;1.20;;;15.20;64.10;;;15.29;47.92;94001.09;5004141;28;20449;-61
2021/12/03 08:11:49;;;;;;;3.77;1.60;;;15.10;64.20;;;15.21;47.96;94007.34;5008524;28;20505;-56
2021/12/03 08:14:17;;;;;;;4.67;2.10;;;15.10;64.30;;;15.15;47.91;94017.84;5002975;28;20461;-60
2021/12/03 08:16:44;;;;;;;7.13;1.83;;;15.00;64.50;;;15.11;48.30;94019.25;5002928;28;20478;-57
2021/12/03 08:19:11;;;;;;;4.90;1.80;;;14.90;64.60;;;15.06;48.38;94035.72;4999913;28;20462;-61
2021/12/03 08:21:39;;;;;;;10.90;2.10;;;14.90;64.80;;;15.03;48.67;94014.91;4999033;28;20498;-61
2021/12/03 08:24:08;;;;;;;8.00;1.43;;;14.90;65.10;;;15.04;48.72;94030.59;5004186;28;20463;-61
2021/12/03 08:26:35;;;;;;;3.93;1.30;;;14.90;65.30;;;15.04;48.48;94029.75;5003658;28;20926;-60
2021/12/03 08:29:04;;;;;;;7.13;1.37;;;14.90;65.20;;;14.99;48.69;94019.75;5007187;28;20837;-59
2021/12/03 08:31:31;;;;;;;5.47;1.27;;;14.80;65.20;;;14.92;48.55;94012.72;5000994;28;20501;-59
2021/12/03 08:33:59;;;;;;;5.70;1.40;;;14.80;65.20;;;14.84;48.96;94032.19;5007655;28;20507;-60
2021/12/03 08:36:26;;;;;;;8.27;1.60;;;14.70;65.50;;;14.79;48.90;94010.78;5006075;28;20478;-58
2021/12/03 08:38:53;;;;;;;5.07;2.17;;;14.60;65.70;;;14.77;49.31;94007.50;4999895;28;20464;-61
2021/12/03 08:41:22;;;;;;;5.90;1.80;;;14.60;66.10;;;14.78;49.46;94022.34;5000957;28;20482;-61
2021/12/03 08:43:50;;;;;;;4.80;1.20;;;14.60;66.40;;;14.79;49.58;94021.34;4998980;28;20458;-61
2021/12/03 08:46:21;;;;;;;5.50;1.53;;;14.60;66.40;;;14.78;49.21;94025.00;4997964;28;20500;-60
2021/12/03 08:48:49;;;;;;;3.57;2.03;;;14.60;66.40;;;14.76;49.20;94019.09;5008892;28;20446;-61
2021/12/03 08:51:32;;;;;;;5.73;1.30;;;14.60;66.30;;;14.70;49.33;94031.22;5008334;28;20486;-58
2021/12/03 08:56:46;;;;;;;1.50;1.33;;;14.50;66.90;;;14.62;49.75;94016.28;5007194;28;20469;-58
2021/12/03 08:59:15;;;;;;;2.97;1.60;;;14.50;67.40;;;14.57;50.11;94016.00;5005818;28;20830;-61
2021/12/03 09:01:44;;;;;;;14.17;2.07;;;14.40;67.30;;;14.54;49.91;94005.78;5002993;28;20474;-58
2021/12/03 09:04:12;;;;;;;5.73;1.97;;;14.40;67.40;;;14.51;49.96;94019.38;5002973;28;20535;-59
2021/12/03 09:06:40;;;;;;;14.53;2.10;;;14.40;67.40;;;14.48;50.33;94032.97;5005665;28;20868;-59
2021/12/03 09:09:07;;;;;;;5.57;1.43;;;14.40;67.90;;;14.44;50.24;94047.59;5001887;28;20447;-58
2021/12/03 09:11:38;;;;;;;8.83;1.70;;;14.30;67.30;;;14.40;50.02;94038.38;5003201;28;20507;-60
2021/12/03 09:14:14;;;;;;;11.37;1.40;;;14.30;67.20;;;14.35;50.56;94037.09;5004246;28;20927;-61
2021/12/03 09:16:42;;;;;;;6.10;1.80;;;14.20;67.60;;;14.32;50.45;94041.94;5002871;28;20559;-58
2021/12/03 09:19:17;;;;;;;7.13;2.67;;;14.20;68.00;;;14.29;50.80;94024.59;5004503;28;20453;-61
2021/12/03 09:21:45;;;;;;;6.87;1.47;;;14.20;68.20;;;14.31;50.81;94027.91;5006489;28;20912;-58
2021/12/03 09:24:14;;;;;;;5.07;1.87;;;14.10;68.30;;;14.29;50.71;94032.53;5003708;28;20959;-60
2021/12/03 09:26:42;;;;;;;7.47;1.33;;;14.10;68.40;;;14.29;50.76;94029.06;5006574;28;20493;-58
2021/12/03 09:29:15;;;;;;;6.40;1.47;;;14.10;68.40;;;14.25;50.44;94022.50;4996603;28;20481;-60
2021/12/03 09:31:44;;;;;;;6.83;1.70;;;14.10;68.50;;;14.24;50.80;94013.75;4999458;28;20474;-60
2021/12/03 09:34:14;;;;;;;5.07;1.50;;;14.10;68.90;;;14.27;50.99;94025.81;4996648;28;20462;-58
2021/12/03 09:36:42;;;;;;;5.70;1.37;;;14.10;68.80;;;14.25;50.50;94027.78;5004113;28;21090;-59
2021/12/03 09:39:14;;;;;;;2.60;1.53;;;14.10;68.50;;;14.25;50.66;94047.16;5003302;28;20834;-58
2021/12/03 09:41:41;;;;;;;10.03;1.20;;;14.10;68.40;;;14.24;50.79;94026.97;5006983;28;20485;-58
2021/12/03 09:44:11;;;;;;;5.50;1.80;;;14.10;68.40;;;14.26;50.97;94024.16;5007041;28;20457;-57
2021/12/03 09:46:39;;;;;;;11.93;1.90;;;14.10;68.70;;;14.25;50.44;94012.75;5001707;28;20600;-58
2021/12/03 09:52:17;;;;;;;4.53;1.30;;;14.10;68.30;;;14.23;50.75;94035.09;4966545;28;20470;-57
2021/12/03 09:54:45;;;;;;;3.60;1.43;;;14.10;68.40;;;14.22;50.77;94018.41;4999292;28;20896;-62
2021/12/03 09:57:16;;;;;;;8.47;1.77;;;14.10;68.40;;;14.21;50.69;94027.34;5002397;28;20552;-58
2021/12/03 10:05:43;;;;;;;1.43;1.23;;;14.10;68.70;;;14.29;50.84;94023.78;4965453;28;20449;-60
2021/12/03 10:13:43;;;;;;;5.43;1.50;;;14.20;68.60;;;14.43;50.11;94015.00;5000679;28;20504;-59
2021/12/03 10:19:00;;;;;;;3.93;1.60;;;14.30;67.20;;;14.44;50.25;94011.38;5000575;28;20553;-58
2021/12/03 10:27:40;;;;;;;7.83;1.37;;;14.40;67.40;;;14.63;50.30;94001.25;4998004;28;20547;-57
2021/12/03 10:30:18;;;;;;;16.20;2.57;;;14.40;67.40;;;14.74;49.34;94007.88;5006247;28;20442;-61
2021/12/03 10:38:36;;;;;;;2.67;1.10;;;14.80;66.00;;;15.23;48.11;94004.50;4966308;28;20915;-58
2021/12/03 10:41:15;;;;;;;2.60;1.13;;;15.00;64.80;;;15.50;47.54;94004.72;4962281;28;20498;-56
2021/12/03 10:44:05;;;;;;;6.03;1.90;;;15.20;64.30;;;15.76;46.63;93989.00;4984811;28;20465;-56
2021/12/03 10:52:16;;;;;;;14.90;3.03;;;15.80;61.80;;;16.26;45.72;93988.13;4984954;28;21012;-61
2021/12/03 14:39:10;;;;;;;13.63;3.00;;;14.80;58.40;;;14.92;45.99;94015.38;4996750;28;20609;-59
2021/12/03 14:41:55;;;;;;;9.67;2.10;;;14.80;58.70;;;14.88;46.03;94030.81;4993816;28;20561;-59
2021/12/03 14:44:28;;;;;;;4.67;1.63;;;14.70;58.70;;;14.85;45.89;94025.91;4995266;28;20477;-56
2021/12/03 14:52:42;;;;;;;9.00;2.00;;;14.70;59.00;;;14.83;46.00;94025.28;4976330;28;20819;-57